createdAt,value
2023-01-03T00:01:14.152Z,10.30
2023-01-03T00:03:40.909Z,10.34
2023-01-03T00:06:19.314Z,10.32
2023-01-03T00:08:46.373Z,10.30
2023-01-03T00:11:17.561Z,10.29
2023-01-03T00:13:45.019Z,10.31
2023-01-03T00:16:21.624Z,10.33
2023-01-03T00:18:48.368Z,10.32
2023-01-03T00:21:14.927Z,10.35
2023-01-03T00:23:41.490Z,10.34
2023-01-03T00:26:12.746Z,10.34
2023-01-03T00:28:39.327Z,10.35
2023-01-03T00:31:08.424Z,10.34
2023-01-03T00:33:36.823Z,10.33
2023-01-03T00:36:05.444Z,10.29
2023-01-03T00:38:32.075Z,10.31
2023-01-03T00:41:13.359Z,10.31
2023-01-03T00:43:41.438Z,10.33
2023-01-03T00:46:09.422Z,10.34
2023-01-03T00:48:36.513Z,10.35
2023-01-03T00:51:07.244Z,10.32
2023-01-03T00:53:35.191Z,10.30
2023-01-03T00:56:04.323Z,10.26
2023-01-03T00:58:32.195Z,10.27
2023-01-03T01:01:08.566Z,10.31
2023-01-03T01:03:37.284Z,10.31
2023-01-03T01:06:18.696Z,10.34
2023-01-03T01:08:46.444Z,10.30
2023-01-03T01:11:14.302Z,10.30
2023-01-03T01:13:42.009Z,10.30
2023-01-03T01:16:11.986Z,10.27
2023-01-03T01:18:39.931Z,10.23
2023-01-03T01:21:08.662Z,10.18
2023-01-03T01:23:37.242Z,10.18
2023-01-03T01:26:04.861Z,10.15
2023-01-03T01:28:32.210Z,10.18
2023-01-03T01:31:00.371Z,10.21
2023-01-03T01:33:28.129Z,10.24
2023-01-03T01:35:54.859Z,10.24
2023-01-03T01:38:21.469Z,10.23
2023-01-03T01:40:48.187Z,10.22
2023-01-03T01:43:39.774Z,10.18
2023-01-03T01:46:31.418Z,10.21
2023-01-03T01:49:03.915Z,10.22
2023-01-03T01:51:35.309Z,10.19
2023-01-03T01:54:04.604Z,10.14
2023-01-03T01:56:40.953Z,10.20
2023-01-03T01:59:10.196Z,10.22
2023-01-03T02:01:38.490Z,10.24
2023-01-03T02:04:12.063Z,10.21
2023-01-03T02:06:39.629Z,10.21
2023-01-03T02:09:06.287Z,10.19
2023-01-03T02:12:15.499Z,10.19
2023-01-03T02:15:05.062Z,10.18
2023-01-03T02:17:38.506Z,10.13
2023-01-03T02:20:21.114Z,10.14
2023-01-03T02:23:08.862Z,10.22
2023-01-03T02:25:41.273Z,10.24
2023-01-03T02:28:26.179Z,10.24
2023-01-03T02:31:07.943Z,10.27
2023-01-03T02:33:46.368Z,10.27
2023-01-03T02:36:34.409Z,10.26
2023-01-03T02:39:08.782Z,10.24
2023-01-03T02:42:14.684Z,10.23
2023-01-03T02:44:56.379Z,10.21
2023-01-03T02:47:27.036Z,10.24
2023-01-03T02:49:58.241Z,10.22
2023-01-03T02:52:28.408Z,10.18
2023-01-03T02:55:13.017Z,10.18
2023-01-03T02:57:45.756Z,10.22
2023-01-03T03:00:16.670Z,10.23
2023-01-03T03:02:51.998Z,10.24
2023-01-03T03:05:25.465Z,10.28
2023-01-03T03:07:52.817Z,10.29
2023-01-03T03:10:39.952Z,10.31
2023-01-03T03:13:20.005Z,10.31
2023-01-03T03:15:55.209Z,10.30
2023-01-03T03:18:30.216Z,10.34
2023-01-03T03:21:18.513Z,10.29
2023-01-03T03:24:08.115Z,10.29
2023-01-03T03:26:42.041Z,10.25
2023-01-03T03:29:16.744Z,10.27
2023-01-03T03:31:49.212Z,10.26
2023-01-03T03:34:25.162Z,10.24
2023-01-03T03:37:05.669Z,10.22
2023-01-03T03:39:51.681Z,10.22
2023-01-03T03:42:42.119Z,10.24
2023-01-03T03:45:24.309Z,10.24
2023-01-03T03:47:59.424Z,10.20
2023-01-03T03:50:40.980Z,10.21
2023-01-03T03:53:10.753Z,10.22
2023-01-03T03:55:42.009Z,10.23
2023-01-03T03:58:16.964Z,10.17
2023-01-03T04:00:46.119Z,10.15
2023-01-03T04:03:14.090Z,10.14
2023-01-03T04:05:46.780Z,10.12
2023-01-03T04:08:13.359Z,10.13
2023-01-03T04:10:40.034Z,10.11
2023-01-03T04:13:06.735Z,10.14
2023-01-03T04:15:33.492Z,10.11
2023-01-03T04:18:02.457Z,10.11
2023-01-03T04:20:29.516Z,10.10
2023-01-03T04:22:56.379Z,10.11
2023-01-03T04:25:23.111Z,10.07
2023-01-03T04:27:49.770Z,10.07
2023-01-03T04:30:16.361Z,10.10
2023-01-03T04:32:42.881Z,10.11
2023-01-03T04:35:09.869Z,10.13
2023-01-03T04:37:36.473Z,10.14
2023-01-03T04:40:03.441Z,10.11
2023-01-03T04:42:48.887Z,10.07
2023-01-03T04:45:15.910Z,10.08
2023-01-03T04:47:42.411Z,10.10
2023-01-03T04:50:10.442Z,10.13
2023-01-03T04:52:36.966Z,10.15
2023-01-03T04:55:03.569Z,10.13
2023-01-03T04:57:30.152Z,10.15
2023-01-03T04:59:57.928Z,10.11
2023-01-03T05:02:24.541Z,10.10
2023-01-03T05:04:51.084Z,10.11
2023-01-03T05:07:17.651Z,10.05
2023-01-03T05:09:44.273Z,10.07
2023-01-03T05:12:12.335Z,10.06
2023-01-03T05:14:41.444Z,10.05
2023-01-03T05:17:08.521Z,10.04
2023-01-03T05:19:36.054Z,10.09
2023-01-03T05:22:22.843Z,10.08
2023-01-03T05:25:08.110Z,10.05
2023-01-03T05:27:34.625Z,10.06
2023-01-03T05:30:01.309Z,10.10
2023-01-03T05:32:29.175Z,10.07
2023-01-03T05:34:55.734Z,10.14
2023-01-03T05:37:23.198Z,10.11
2023-01-03T05:39:49.839Z,10.14
2023-01-03T05:42:16.463Z,10.14
2023-01-03T05:44:43.508Z,10.12
2023-01-03T05:47:10.063Z,10.14
2023-01-03T05:49:36.644Z,10.17
2023-01-03T05:52:03.827Z,10.18
2023-01-03T05:54:30.433Z,10.21
2023-01-03T05:56:57.201Z,10.19
2023-01-03T05:59:23.954Z,10.23
2023-01-03T06:01:50.901Z,10.22
2023-01-03T06:04:17.613Z,10.19
2023-01-03T06:06:44.266Z,10.11
2023-01-03T06:09:11.085Z,10.18
2023-01-03T06:11:39.913Z,10.12
2023-01-03T06:14:07.101Z,10.12
2023-01-03T06:16:52.432Z,10.18
2023-01-03T06:19:19.107Z,10.14
2023-01-03T06:21:45.759Z,10.20
2023-01-03T06:24:12.485Z,10.16
2023-01-03T06:26:39.037Z,10.19
2023-01-03T06:29:06.561Z,10.27
2023-01-03T06:31:33.362Z,10.24
2023-01-03T06:34:00.055Z,10.24
2023-01-03T06:36:26.768Z,10.24
2023-01-03T06:38:54.169Z,10.26
2023-01-03T06:41:20.806Z,10.26
2023-01-03T06:43:47.340Z,10.25
2023-01-03T06:46:33.185Z,10.29
2023-01-03T06:49:18.693Z,10.30
2023-01-03T06:52:07.171Z,10.30
2023-01-03T06:54:36.539Z,10.30
2023-01-03T06:57:04.337Z,10.29
2023-01-03T06:59:30.906Z,10.30
2023-01-03T07:01:58.031Z,10.29
2023-01-03T07:04:26.101Z,10.32
2023-01-03T07:06:52.977Z,10.30
2023-01-03T07:09:19.647Z,10.31
2023-01-03T07:11:49.196Z,10.30
2023-01-03T07:14:15.874Z,10.30
2023-01-03T07:16:44.827Z,10.31
2023-01-03T07:19:19.495Z,10.34
2023-01-03T07:21:46.704Z,10.32
2023-01-03T07:24:15.310Z,10.32
2023-01-03T07:26:42.064Z,10.32
2023-01-03T07:29:10.716Z,10.40
2023-01-03T07:31:41.535Z,10.41
2023-01-03T07:34:09.343Z,10.47
2023-01-03T07:36:36.402Z,10.51
2023-01-03T07:39:03.092Z,10.55
2023-01-03T07:41:49.595Z,10.58
2023-01-03T07:44:16.309Z,10.60
2023-01-03T07:46:42.892Z,10.61
2023-01-03T07:49:12.047Z,10.66
2023-01-03T07:51:39.821Z,10.68
2023-01-03T07:54:07.557Z,10.65
2023-01-03T07:56:34.434Z,10.66
2023-01-03T07:59:01.121Z,10.70
2023-01-03T08:01:29.858Z,10.71
2023-01-03T08:03:56.547Z,10.76
2023-01-03T08:06:23.868Z,10.79
2023-01-03T08:09:10.969Z,10.82
2023-01-03T08:11:56.922Z,10.81
2023-01-03T08:14:26.019Z,10.77
2023-01-03T08:16:53.052Z,10.79
2023-01-03T08:19:19.613Z,10.81
2023-01-03T08:21:46.324Z,10.82
2023-01-03T08:24:13.168Z,10.84
2023-01-03T08:26:39.778Z,10.86
2023-01-03T08:29:07.337Z,10.87
2023-01-03T08:31:38.931Z,10.86
2023-01-03T08:34:15.548Z,10.82
2023-01-03T08:36:57.333Z,10.79
2023-01-03T08:39:27.582Z,10.85
2023-01-03T08:42:01.039Z,10.86
2023-01-03T08:44:28.084Z,10.87
2023-01-03T08:46:57.294Z,11.03
2023-01-03T08:49:24.136Z,11.06
2023-01-03T08:51:50.900Z,11.12
2023-01-03T08:54:17.492Z,11.19
2023-01-03T08:56:43.984Z,11.19
2023-01-03T08:59:10.695Z,11.26
2023-01-03T09:01:37.474Z,11.31
2023-01-03T09:04:05.491Z,11.36
2023-01-03T09:06:32.670Z,11.42
2023-01-03T09:08:59.246Z,11.46
2023-01-03T09:11:25.896Z,11.53
2023-01-03T09:13:55.754Z,11.44
2023-01-03T09:16:22.455Z,11.54
2023-01-03T09:18:49.022Z,11.68
2023-01-03T09:21:15.596Z,11.80
2023-01-03T09:23:42.130Z,11.74
2023-01-03T09:26:08.662Z,11.69
2023-01-03T09:28:35.364Z,11.57
2023-01-03T09:31:02.367Z,11.68
2023-01-03T09:33:28.966Z,11.67
2023-01-03T09:35:56.033Z,11.64
2023-01-03T09:38:23.425Z,11.76
2023-01-03T09:41:00.302Z,11.55
2023-01-03T09:43:37.026Z,11.67
2023-01-03T09:46:05.978Z,11.68
2023-01-03T09:48:33.837Z,11.66
2023-01-03T09:54:06.225Z,11.74
2023-01-03T09:56:51.497Z,11.93
2023-01-03T09:59:37.369Z,12.08
2023-01-03T10:02:48.830Z,11.94
2023-01-03T10:05:24.478Z,11.96
2023-01-03T10:08:09.477Z,12.06
2023-01-03T10:11:04.893Z,12.12
2023-01-03T10:13:50.749Z,12.29
2023-01-03T10:16:40.210Z,12.35
2023-01-03T10:19:22.087Z,12.31
2023-01-03T10:21:51.938Z,12.31
2023-01-03T10:24:24.458Z,12.26
2023-01-03T10:27:11.179Z,12.30
2023-01-03T10:29:37.750Z,12.35
2023-01-03T10:32:25.862Z,12.47
2023-01-03T10:35:15.026Z,12.57
2023-01-03T10:37:41.700Z,12.49
2023-01-03T10:40:09.384Z,12.68
2023-01-03T10:42:42.941Z,12.72
2023-01-03T10:45:16.729Z,12.69
2023-01-03T10:47:43.517Z,12.74
2023-01-03T10:50:23.746Z,12.76
2023-01-03T10:52:58.303Z,12.82
2023-01-03T10:55:26.553Z,12.82
2023-01-03T10:57:53.146Z,12.64
2023-01-03T11:00:28.277Z,12.63
2023-01-03T11:02:56.741Z,12.84
2023-01-03T11:05:26.620Z,13.05
2023-01-03T11:08:02.407Z,13.15
2023-01-03T11:10:37.070Z,13.11
2023-01-03T11:13:24.106Z,12.90
2023-01-03T11:15:59.865Z,12.97
2023-01-03T11:18:28.028Z,12.86
2023-01-03T11:21:12.761Z,13.00
2023-01-03T11:24:07.209Z,12.95
2023-01-03T11:26:44.020Z,12.65
2023-01-03T11:29:19.541Z,12.57
2023-01-03T11:32:01.371Z,12.67
2023-01-03T11:34:54.976Z,12.67
2023-01-03T11:37:52.439Z,12.74
2023-01-03T11:40:33.485Z,12.79
2023-01-03T11:43:16.334Z,12.75
2023-01-03T11:46:07.753Z,12.74
2023-01-03T11:48:47.205Z,12.80
2023-01-03T11:51:32.335Z,12.82
2023-01-03T11:54:20.693Z,12.84
2023-01-03T11:56:47.823Z,12.87
2023-01-03T11:59:39.015Z,12.97
2023-01-03T12:02:49.585Z,13.09
2023-01-03T12:05:48.922Z,13.21
2023-01-03T12:08:56.788Z,13.19
2023-01-03T12:11:47.673Z,13.36
2023-01-03T12:14:26.007Z,13.45
2023-01-03T12:17:40.956Z,13.52
2023-01-03T12:20:26.727Z,13.49
2023-01-03T12:23:15.582Z,13.37
2023-01-03T12:25:51.482Z,13.47
2023-01-03T12:28:28.046Z,13.59
2023-01-03T12:31:19.147Z,13.54
2023-01-03T12:33:57.215Z,13.70
2023-01-03T12:36:51.221Z,13.63
2023-01-03T12:39:37.004Z,13.68
2023-01-03T12:42:24.906Z,13.70
2023-01-03T12:44:58.974Z,13.75
2023-01-03T12:47:40.400Z,13.89
2023-01-03T12:50:21.140Z,13.92
2023-01-03T12:53:02.190Z,13.87
2023-01-03T12:55:52.406Z,13.87
2023-01-03T12:58:39.751Z,13.81
2023-01-03T13:01:15.813Z,13.76
2023-01-03T13:03:47.871Z,13.85
2023-01-03T13:06:20.727Z,13.91
2023-01-03T13:08:57.590Z,13.87
2023-01-03T13:11:55.109Z,13.84
2023-01-03T13:14:27.602Z,13.82
2023-01-03T13:17:14.685Z,13.92
2023-01-03T13:19:50.596Z,13.93
2023-01-03T13:22:57.174Z,13.82
2023-01-03T13:25:26.717Z,13.74
2023-01-03T13:27:56.064Z,13.67
2023-01-03T13:30:31.826Z,13.64
2023-01-03T13:33:06.539Z,13.56
2023-01-03T13:35:52.679Z,13.62
2023-01-03T13:38:28.200Z,13.55
2023-01-03T13:41:30.114Z,13.46
2023-01-03T13:44:09.096Z,13.38
2023-01-03T13:46:40.445Z,13.38
2023-01-03T13:49:09.004Z,13.35
2023-01-03T13:51:41.687Z,13.34
2023-01-03T13:54:10.931Z,13.31
2023-01-03T13:56:43.276Z,13.26
2023-01-03T13:59:18.912Z,13.25
2023-01-03T14:01:48.649Z,13.24
2023-01-03T14:04:33.512Z,13.23
2023-01-03T14:07:06.844Z,13.16
2023-01-03T14:09:45.389Z,13.13
2023-01-03T14:12:42.865Z,13.15
2023-01-03T14:15:25.968Z,13.18
2023-01-03T14:17:58.177Z,13.17
2023-01-03T14:20:30.804Z,13.15
2023-01-03T14:23:17.032Z,13.18
2023-01-03T14:25:50.043Z,13.28
2023-01-03T14:28:19.316Z,13.26
2023-01-03T14:30:50.585Z,13.26
2023-01-03T14:33:19.570Z,13.26
2023-01-03T14:35:46.458Z,13.19
2023-01-03T14:38:27.983Z,13.11
2023-01-03T14:40:55.954Z,13.14
2023-01-03T14:43:23.042Z,13.07
2023-01-03T14:45:54.226Z,13.05
2023-01-03T14:48:22.657Z,13.06
2023-01-03T14:50:49.658Z,13.03
2023-01-03T14:53:16.931Z,13.04
2023-01-03T14:55:51.569Z,13.00
2023-01-03T14:58:29.593Z,13.02
2023-01-03T15:00:56.808Z,12.99
2023-01-03T15:03:24.415Z,12.98
2023-01-03T15:05:59.117Z,12.96
2023-01-03T15:08:31.533Z,12.92
2023-01-03T15:11:06.083Z,12.91
2023-01-03T15:13:43.846Z,12.84
2023-01-03T15:16:32.320Z,12.76
2023-01-03T15:19:06.130Z,12.71
2023-01-03T15:21:32.679Z,12.65
2023-01-03T15:23:59.404Z,12.59
2023-01-03T15:26:40.497Z,12.54
2023-01-03T15:29:17.865Z,12.49
2023-01-03T15:31:54.763Z,12.41
2023-01-03T15:34:26.728Z,12.36
2023-01-03T15:37:00.333Z,12.29
2023-01-03T15:39:34.978Z,12.25
2023-01-03T15:42:44.041Z,12.25
2023-01-03T15:45:20.375Z,12.19
2023-01-03T15:47:48.989Z,12.21
2023-01-03T15:50:20.758Z,12.20
2023-01-03T15:52:48.595Z,12.15
2023-01-03T15:55:17.071Z,12.15
2023-01-03T15:57:50.887Z,12.11
2023-01-03T16:00:21.856Z,12.07
2023-01-03T16:02:49.247Z,12.07
2023-01-03T16:05:21.913Z,12.03
2023-01-03T16:07:49.807Z,12.00
2023-01-03T16:10:16.398Z,11.97
2023-01-03T16:12:43.565Z,11.96
2023-01-03T16:15:28.463Z,11.92
2023-01-03T16:17:55.129Z,11.94
2023-01-03T16:20:21.819Z,11.93
2023-01-03T16:23:01.764Z,11.92
2023-01-03T16:25:29.201Z,11.90
2023-01-03T16:27:56.068Z,11.91
2023-01-03T16:30:24.276Z,11.89
2023-01-03T16:32:51.588Z,11.88
2023-01-03T16:35:19.510Z,11.89
2023-01-03T16:37:46.356Z,11.87
2023-01-03T16:40:17.912Z,11.88
2023-01-03T16:42:44.459Z,11.87
2023-01-03T16:45:11.651Z,11.87
2023-01-03T16:47:38.799Z,11.86
2023-01-03T16:50:19.695Z,11.85
2023-01-03T16:52:54.543Z,11.84
2023-01-03T16:55:26.205Z,11.84
2023-01-03T16:57:54.911Z,11.82
2023-01-03T17:00:27.534Z,11.75
2023-01-03T17:02:55.928Z,11.78
2023-01-03T17:05:22.895Z,11.79
2023-01-03T17:07:53.047Z,11.77
2023-01-03T17:10:27.402Z,11.78
2023-01-03T17:12:55.533Z,11.77
2023-01-03T17:15:22.138Z,11.77
2023-01-03T17:17:48.668Z,11.74
2023-01-03T17:20:17.613Z,11.73
2023-01-03T17:22:49.327Z,11.74
2023-01-03T17:25:15.956Z,11.72
2023-01-03T17:27:49.797Z,11.70
2023-01-03T17:30:22.702Z,11.70
2023-01-03T17:32:49.440Z,11.68
2023-01-03T17:35:16.857Z,11.66
2023-01-03T17:38:14.288Z,11.64
2023-01-03T17:40:34.340Z,11.64
2023-01-03T17:43:02.361Z,11.63
2023-01-03T17:45:48.048Z,11.60
2023-01-03T17:48:33.207Z,11.59
2023-01-03T17:51:01.702Z,11.57
2023-01-03T17:53:28.810Z,11.58
2023-01-03T17:55:55.405Z,11.56
2023-01-03T17:58:39.107Z,11.53
2023-01-03T18:01:08.470Z,11.50
2023-01-03T18:03:36.560Z,11.50
2023-01-03T18:06:07.465Z,11.51
2023-01-03T18:08:34.712Z,11.43
2023-01-03T18:11:01.499Z,11.44
2023-01-03T18:13:32.267Z,11.41
2023-01-03T18:15:59.084Z,11.42
2023-01-03T18:18:27.093Z,11.41
2023-01-03T18:20:54.572Z,11.35
2023-01-03T18:23:33.642Z,11.31
2023-01-03T18:26:07.015Z,11.27
2023-01-03T18:28:33.867Z,11.19
2023-01-03T18:31:00.485Z,11.16
2023-01-03T18:33:27.184Z,11.16
2023-01-03T18:35:53.913Z,11.15
2023-01-03T18:38:30.375Z,11.14
2023-01-03T18:41:04.369Z,11.12
2023-01-03T18:43:32.180Z,11.11
2023-01-03T18:45:58.771Z,11.11
2023-01-03T18:48:25.394Z,11.12
2023-01-03T18:50:58.312Z,11.10
2023-01-03T18:53:28.746Z,11.05
2023-01-03T18:55:55.557Z,11.11
2023-01-03T18:58:31.691Z,11.11
2023-01-03T19:00:58.790Z,11.10
2023-01-03T19:03:29.336Z,11.11
2023-01-03T19:05:58.617Z,11.12
2023-01-03T19:08:27.053Z,11.15
2023-01-03T19:10:53.723Z,11.14
2023-01-03T19:13:29.365Z,11.17
2023-01-03T19:15:56.759Z,11.17
2023-01-03T19:18:23.394Z,11.16
2023-01-03T19:20:50.724Z,11.16
2023-01-03T19:23:25.066Z,11.16
2023-01-03T19:25:52.092Z,11.15
2023-01-03T19:28:24.738Z,11.13
2023-01-03T19:30:51.905Z,11.07
2023-01-03T19:33:19.590Z,11.08
2023-01-03T19:35:46.470Z,11.06
2023-01-03T19:38:13.382Z,11.02
2023-01-03T19:40:43.051Z,11.02
2023-01-03T19:43:21.367Z,11.00
2023-01-03T19:45:48.177Z,10.98
2023-01-03T19:48:16.842Z,10.95
2023-01-03T19:50:43.401Z,10.97
2023-01-03T19:53:10.005Z,10.96
2023-01-03T19:55:41.071Z,10.99
2023-01-03T19:58:22.014Z,11.00
2023-01-03T20:00:49.648Z,11.01
2023-01-03T20:03:35.733Z,10.99
2023-01-03T20:06:02.563Z,10.95
2023-01-03T20:08:29.109Z,10.99
2023-01-03T20:10:56.640Z,10.97
2023-01-03T20:13:26.020Z,10.95
2023-01-03T20:15:57.296Z,10.91
2023-01-03T20:18:28.994Z,10.87
2023-01-03T20:20:59.746Z,10.84
2023-01-03T20:23:31.131Z,10.78
2023-01-03T20:25:58.318Z,10.77
2023-01-03T20:28:29.658Z,10.76
2023-01-03T20:30:58.176Z,10.78
2023-01-03T20:33:25.625Z,10.81
2023-01-03T20:36:11.136Z,10.82
2023-01-03T20:38:43.544Z,10.81
2023-01-03T20:41:12.523Z,10.81
2023-01-03T20:43:39.209Z,10.78
2023-01-03T20:46:06.311Z,10.75
2023-01-03T20:48:32.933Z,10.72
2023-01-03T20:50:59.497Z,10.71
2023-01-03T20:53:26.923Z,10.69
2023-01-03T20:55:53.968Z,10.67
2023-01-03T20:58:25.338Z,10.65
2023-01-03T21:00:55.523Z,10.61
2023-01-03T21:03:26.434Z,10.55
2023-01-03T21:05:54.965Z,10.48
2023-01-03T21:08:40.050Z,10.43
2023-01-03T21:11:06.599Z,10.35
2023-01-03T21:13:33.148Z,10.31
2023-01-03T21:15:59.746Z,10.25
2023-01-03T21:18:26.315Z,10.19
2023-01-03T21:20:52.838Z,10.12
2023-01-03T21:23:21.991Z,10.08
2023-01-03T21:25:49.598Z,10.01
2023-01-03T21:28:16.230Z,9.94
2023-01-03T21:30:43.364Z,9.93
2023-01-03T21:33:19.653Z,9.89
2023-01-03T21:35:46.434Z,9.83
2023-01-03T21:38:13.038Z,9.86
2023-01-03T21:40:39.724Z,9.81
2023-01-03T21:43:06.542Z,9.85
2023-01-03T21:45:38.724Z,9.83
2023-01-03T21:48:11.612Z,9.79
2023-01-03T21:50:40.436Z,9.76
2023-01-03T21:53:07.422Z,9.73
2023-01-03T21:55:34.114Z,9.67
2023-01-03T21:58:01.082Z,9.61
2023-01-03T22:00:27.662Z,9.56
2023-01-03T22:03:13.087Z,9.50
2023-01-03T22:05:39.715Z,9.45
2023-01-03T22:08:06.737Z,9.44
2023-01-03T22:10:34.345Z,9.37
2023-01-03T22:13:03.945Z,9.37
2023-01-03T22:15:30.546Z,9.36
2023-01-03T22:17:57.514Z,9.31
2023-01-03T22:20:26.414Z,9.33
2023-01-03T22:22:53.824Z,9.35
2023-01-03T22:25:23.679Z,9.39
2023-01-03T22:27:50.311Z,9.40
2023-01-03T22:30:19.482Z,9.41
2023-01-03T22:32:47.188Z,9.44
2023-01-03T22:35:15.546Z,9.47
2023-01-03T22:37:42.409Z,9.47
2023-01-03T22:40:12.575Z,9.50
2023-01-03T22:42:39.181Z,9.50
2023-01-03T22:45:07.124Z,9.54
2023-01-03T22:47:35.322Z,9.54
2023-01-03T22:50:02.141Z,9.59
2023-01-03T22:52:28.733Z,9.59
2023-01-03T22:54:55.275Z,9.60
2023-01-03T22:57:21.881Z,9.66
2023-01-03T22:59:48.449Z,9.67
2023-01-03T23:02:15.466Z,9.69
2023-01-03T23:04:42.681Z,9.72
2023-01-03T23:07:09.907Z,9.74
2023-01-03T23:09:36.434Z,9.80
2023-01-03T23:12:21.719Z,9.84
2023-01-03T23:14:48.238Z,9.86
2023-01-03T23:17:33.264Z,9.87
2023-01-03T23:20:00.252Z,9.92
2023-01-03T23:22:26.902Z,9.80
2023-01-03T23:24:53.709Z,9.82
2023-01-03T23:27:20.229Z,9.79
2023-01-03T23:29:46.815Z,9.78
2023-01-03T23:32:13.443Z,9.72
2023-01-03T23:34:40.039Z,9.70
2023-01-03T23:37:06.535Z,9.69
2023-01-03T23:39:33.177Z,9.67
2023-01-03T23:41:59.709Z,9.68
2023-01-03T23:44:26.671Z,9.68
2023-01-03T23:46:53.515Z,9.63
2023-01-03T23:49:20.109Z,9.63
2023-01-03T23:51:46.680Z,9.59
2023-01-03T23:54:13.248Z,9.59
2023-01-03T23:56:39.765Z,9.54
2023-01-03T23:59:06.497Z,9.55
